createdAt,value
2024-04-17T05:00:45.314Z,208.00
2024-04-17T05:01:45.242Z,188.00
2024-04-17T05:02:45.174Z,188.00
2024-04-17T05:03:45.248Z,192.00
2024-04-17T05:04:45.275Z,204.00
2024-04-17T05:05:45.155Z,216.00
2024-04-17T05:06:45.157Z,232.00
2024-04-17T05:07:52.818Z,256.00
2024-04-17T05:08:45.109Z,292.00
2024-04-17T05:09:45.119Z,344.00
2024-04-17T05:10:45.123Z,392.00
2024-04-17T05:11:50.239Z,436.00
2024-04-17T05:12:45.098Z,476.00
2024-04-17T05:13:45.148Z,484.00
2024-04-17T05:14:45.037Z,492.00
2024-04-17T05:15:45.029Z,528.00
2024-04-17T05:16:45.128Z,564.00
2024-04-17T05:17:45.127Z,588.00
2024-04-17T05:18:45.083Z,616.00
2024-04-17T05:19:45.108Z,620.00
2024-04-17T05:20:44.993Z,624.00
2024-04-17T05:21:45.021Z,624.00
2024-04-17T05:22:50.045Z,632.00
2024-04-17T05:23:45.029Z,684.00
2024-04-17T05:24:44.960Z,708.00
2024-04-17T05:25:44.960Z,720.00
2024-04-17T05:26:44.908Z,756.00
2024-04-17T05:27:44.900Z,768.00
2024-04-17T05:28:44.978Z,808.00
2024-04-17T05:29:47.211Z,844.00
2024-04-17T05:30:44.874Z,904.00
2024-04-17T05:31:44.929Z,936.00
2024-04-17T05:32:44.910Z,988.00
2024-04-17T05:33:49.932Z,996.00
2024-04-17T05:34:44.908Z,1088.00
2024-04-17T05:35:44.809Z,1140.00
2024-04-17T05:36:44.847Z,1184.00
2024-04-17T05:37:44.880Z,1208.00
2024-04-17T05:38:44.854Z,1332.00
2024-04-17T05:39:44.763Z,1336.00
2024-04-17T05:40:44.829Z,1332.00
2024-04-17T05:41:44.773Z,1460.00
2024-04-17T05:42:44.823Z,1420.00
2024-04-17T05:43:44.812Z,1500.00
2024-04-17T05:44:49.770Z,1476.00
2024-04-17T05:45:44.735Z,1416.00
2024-04-17T05:46:44.746Z,1452.00
2024-04-17T05:47:44.731Z,1336.00
2024-04-17T05:48:44.706Z,1280.00
2024-04-17T05:49:44.708Z,1148.00
2024-04-17T05:50:44.698Z,1000.00
2024-04-17T05:51:44.672Z,936.00
2024-04-17T05:52:44.684Z,804.00
2024-04-17T05:53:44.613Z,756.00
2024-04-17T05:54:44.603Z,744.00
2024-04-17T05:55:49.653Z,908.00
2024-04-17T05:56:44.609Z,1036.00
2024-04-17T05:57:44.599Z,1148.00
2024-04-17T05:58:44.570Z,1368.00
2024-04-17T05:59:44.537Z,1536.00
2024-04-17T06:00:44.574Z,1632.00
2024-04-17T06:01:44.671Z,1588.00
2024-04-17T06:02:44.568Z,1764.00
2024-04-17T06:03:44.562Z,1572.00
2024-04-17T06:04:44.520Z,1636.00
2024-04-17T06:05:44.481Z,1692.00
2024-04-17T06:06:49.486Z,1716.00
2024-04-17T06:07:44.618Z,1756.00
2024-04-17T06:08:44.452Z,1848.00
2024-04-17T06:09:44.452Z,2000.00
2024-04-17T06:10:44.498Z,1932.00
2024-04-17T06:11:44.431Z,1972.00
2024-04-17T06:12:44.400Z,1956.00
2024-04-17T06:13:44.528Z,2012.00
2024-04-17T06:14:44.425Z,1928.00
2024-04-17T06:15:44.391Z,1972.00
2024-04-17T06:16:44.366Z,2208.00
2024-04-17T06:17:49.435Z,2528.00
2024-04-17T06:18:44.396Z,2496.00
2024-04-17T06:19:44.363Z,2540.00
2024-04-17T06:20:44.372Z,2500.00
2024-04-17T06:21:44.341Z,2376.00
2024-04-17T06:22:44.373Z,2268.00
2024-04-17T06:23:44.277Z,2140.00
2024-04-17T06:24:44.296Z,2240.00
2024-04-17T06:25:44.293Z,2228.00
2024-04-17T06:26:44.279Z,2112.00
2024-04-17T06:27:44.286Z,2256.00
2024-04-17T06:28:49.292Z,2384.00
2024-04-17T06:29:44.225Z,2500.00
2024-04-17T06:30:44.207Z,2676.00
2024-04-17T06:31:44.259Z,2956.00
2024-04-17T06:32:44.514Z,2908.00
2024-04-17T06:33:44.182Z,2676.00
2024-04-17T06:34:44.245Z,2708.00
2024-04-17T06:35:44.142Z,2736.00
2024-04-17T06:36:44.152Z,2864.00
2024-04-17T06:37:44.163Z,3164.00
2024-04-17T06:38:44.143Z,3288.00
2024-04-17T06:39:49.218Z,3268.00
2024-04-17T06:44:28.144Z,5264.00
2024-04-17T06:45:28.083Z,4192.00
2024-04-17T06:46:28.142Z,4504.00
2024-04-17T06:47:28.205Z,5652.00
2024-04-17T06:48:28.147Z,6416.00
2024-04-17T06:49:28.080Z,5532.00
2024-04-17T06:50:28.057Z,4712.00
2024-04-17T06:51:28.029Z,4060.00
2024-04-17T06:52:28.124Z,3136.00
2024-04-17T06:53:28.038Z,2644.00
2024-04-17T06:54:28.000Z,2596.00
2024-04-17T06:55:33.013Z,2624.00
2024-04-17T06:56:27.960Z,2656.00
2024-04-17T06:57:27.965Z,2876.00
2024-04-17T06:58:27.978Z,3528.00
2024-04-17T06:59:30.112Z,3556.00
2024-04-17T07:00:27.965Z,3280.00
2024-04-17T07:01:28.061Z,2416.00
2024-04-17T07:02:27.954Z,1860.00
2024-04-17T07:03:27.946Z,1788.00
2024-04-17T07:04:27.925Z,1672.00
2024-04-17T07:05:27.893Z,1736.00
2024-04-17T07:06:34.351Z,1820.00
2024-04-17T07:07:27.880Z,1548.00
2024-04-17T07:08:27.896Z,1568.00
2024-04-17T07:09:27.858Z,1732.00
2024-04-17T07:10:28.009Z,1960.00
2024-04-17T07:11:27.815Z,1996.00
2024-04-17T07:12:27.778Z,2052.00
2024-04-17T07:13:27.836Z,2072.00
2024-04-17T07:14:27.792Z,2328.00
2024-04-17T07:15:27.749Z,2580.00
2024-04-17T07:16:27.815Z,2376.00
2024-04-17T07:17:32.835Z,2208.00
2024-04-17T07:18:27.757Z,2260.00
2024-04-17T07:19:27.755Z,2388.00
2024-04-17T07:20:27.734Z,2412.00
2024-04-17T07:21:27.712Z,2348.00
2024-04-17T07:22:27.779Z,2124.00
2024-04-17T07:23:27.669Z,2416.00
2024-04-17T07:24:27.717Z,2640.00
2024-04-17T07:25:27.757Z,3248.00
2024-04-17T07:26:27.643Z,3800.00
2024-04-17T07:27:27.638Z,3448.00
2024-04-17T07:28:32.676Z,3408.00
2024-04-17T07:29:27.597Z,3332.00
2024-04-17T07:30:27.676Z,3420.00
2024-04-17T07:31:27.608Z,3816.00
2024-04-17T07:32:27.605Z,4024.00
2024-04-17T07:33:27.590Z,3940.00
2024-04-17T07:34:27.575Z,5088.00
2024-04-17T07:35:27.525Z,7356.00
2024-04-17T07:36:27.543Z,7448.00
2024-04-17T07:37:27.574Z,7292.00
2024-04-17T07:38:29.624Z,6228.00
2024-04-17T07:39:32.574Z,6192.00
2024-04-17T07:40:27.530Z,6684.00
2024-04-17T07:41:27.457Z,5932.00
2024-04-17T07:42:27.443Z,6416.00
2024-04-17T07:43:27.468Z,6088.00
2024-04-17T07:44:27.452Z,5364.00
2024-04-17T07:45:27.488Z,5508.00
2024-04-17T07:46:27.434Z,5096.00
2024-04-17T07:47:27.526Z,4636.00
2024-04-17T07:48:27.458Z,4108.00
2024-04-17T07:49:27.467Z,3928.00
2024-04-17T07:50:32.450Z,4552.00
2024-04-17T07:51:27.355Z,5512.00
2024-04-17T07:52:27.405Z,5408.00
2024-04-17T07:53:27.312Z,5584.00
2024-04-17T07:54:27.328Z,5664.00
2024-04-17T07:55:27.412Z,6300.00
2024-04-17T07:56:27.371Z,6624.00
2024-04-17T07:57:27.306Z,5944.00
2024-04-17T07:58:27.305Z,5168.00
2024-04-17T07:59:29.543Z,4424.00
2024-04-17T08:00:27.242Z,3788.00
2024-04-17T08:01:32.323Z,3468.00
2024-04-17T08:02:27.278Z,3508.00
2024-04-17T08:03:27.275Z,3708.00
2024-04-17T08:04:27.255Z,3916.00
2024-04-17T08:05:29.269Z,4004.00
2024-04-17T08:06:27.169Z,7164.00
2024-04-17T08:07:27.176Z,8720.00
2024-04-17T08:08:27.174Z,7124.00
2024-04-17T08:09:27.204Z,7764.00
2024-04-17T08:10:27.186Z,6404.00
2024-04-17T08:11:28.605Z,6908.00
2024-04-17T08:12:32.150Z,6160.00
2024-04-17T08:13:27.104Z,7180.00
2024-04-17T08:14:27.104Z,6592.00
2024-04-17T08:15:27.114Z,5928.00
2024-04-17T08:16:27.176Z,5116.00
2024-04-17T08:17:27.182Z,6816.00
2024-04-17T08:18:27.176Z,8096.00
2024-04-17T08:19:27.060Z,7676.00
2024-04-17T08:20:27.100Z,7836.00
2024-04-17T08:21:27.050Z,5800.00
2024-04-17T08:22:27.050Z,4948.00
2024-04-17T08:23:35.277Z,4460.00
2024-04-17T08:24:26.992Z,4300.00
2024-04-17T08:25:27.136Z,4296.00
2024-04-17T08:26:26.979Z,6260.00
2024-04-17T08:27:26.987Z,7896.00
2024-04-17T08:28:26.992Z,7592.00
2024-04-17T08:29:29.339Z,5988.00
2024-04-17T08:30:26.897Z,8616.00
2024-04-17T08:31:26.905Z,10592.00
2024-04-17T08:32:27.062Z,10516.00
2024-04-17T08:33:27.021Z,12096.00
2024-04-17T08:34:31.913Z,10488.00
2024-04-17T08:35:26.867Z,11940.00
2024-04-17T08:36:27.101Z,11572.00
2024-04-17T08:37:26.874Z,14560.00
2024-04-17T08:38:26.908Z,13444.00
2024-04-17T08:39:26.803Z,10352.00
2024-04-17T08:40:26.826Z,9544.00
2024-04-17T08:41:28.355Z,9996.00
2024-04-17T08:42:26.824Z,11772.00
2024-04-17T08:43:26.847Z,9948.00
2024-04-17T08:44:26.737Z,7840.00
2024-04-17T08:45:43.783Z,7772.00
2024-04-17T08:46:26.905Z,8444.00
2024-04-17T08:47:26.849Z,7532.00
2024-04-17T08:48:26.887Z,7932.00
2024-04-17T08:49:26.732Z,8624.00
2024-04-17T08:50:26.663Z,8648.00
2024-04-17T08:51:26.695Z,8952.00
2024-04-17T08:52:26.695Z,10024.00
2024-04-17T08:53:26.679Z,8956.00
2024-04-17T08:54:26.648Z,9304.00
2024-04-17T08:55:26.648Z,11328.00
2024-04-17T08:56:31.626Z,12720.00
2024-04-17T08:57:26.623Z,11288.00
2024-04-17T08:58:26.609Z,10380.00
2024-04-17T08:59:26.623Z,9696.00
2024-04-17T09:00:26.561Z,10232.00
2024-04-17T09:01:26.572Z,8568.00
2024-04-17T09:02:26.576Z,11172.00
2024-04-17T09:03:26.625Z,10212.00
2024-04-17T09:04:26.558Z,8652.00
2024-04-17T09:05:26.544Z,7276.00
2024-04-17T09:06:26.480Z,7312.00
2024-04-17T09:07:31.527Z,7828.00
2024-04-17T09:08:26.744Z,7884.00
2024-04-17T09:09:26.502Z,8388.00
2024-04-17T09:10:26.511Z,8432.00
2024-04-17T09:11:26.498Z,8724.00
2024-04-17T09:12:26.419Z,8564.00
2024-04-17T09:13:26.552Z,11472.00
2024-04-17T09:14:26.760Z,9392.00
2024-04-17T09:15:26.411Z,9188.00
2024-04-17T09:16:26.416Z,10104.00
2024-04-17T09:17:29.430Z,9744.00
2024-04-17T09:18:31.401Z,9816.00
2024-04-17T09:19:26.377Z,10376.00
2024-04-17T09:20:26.340Z,12948.00
2024-04-17T09:21:26.354Z,12968.00
2024-04-17T09:22:26.395Z,13972.00
2024-04-17T09:23:26.350Z,27040.00
2024-04-17T09:24:26.284Z,14380.00
2024-04-17T09:25:26.428Z,12644.00
2024-04-17T09:26:26.351Z,14324.00
2024-04-17T09:27:26.269Z,18848.00
2024-04-17T09:28:26.335Z,27008.00
2024-04-17T09:29:31.313Z,20032.00
2024-04-17T09:30:26.214Z,15904.00
2024-04-17T09:31:26.289Z,22112.00
2024-04-17T09:32:26.229Z,25920.00
2024-04-17T09:33:26.239Z,25312.00
2024-04-17T09:34:26.262Z,20704.00
2024-04-17T09:35:26.180Z,13644.00
2024-04-17T09:36:26.204Z,8716.00
2024-04-17T09:37:26.160Z,9672.00
2024-04-17T09:38:26.153Z,11432.00
2024-04-17T09:39:26.134Z,13292.00
2024-04-17T09:40:31.170Z,12972.00
2024-04-17T09:41:26.113Z,11140.00
2024-04-17T09:42:26.073Z,11460.00
2024-04-17T09:43:28.941Z,9940.00
2024-04-17T09:44:26.071Z,8128.00
2024-04-17T09:45:26.085Z,13196.00
2024-04-17T09:46:26.150Z,17408.00
2024-04-17T09:47:26.062Z,22112.00
2024-04-17T09:48:26.013Z,11900.00
2024-04-17T09:49:26.090Z,10216.00
2024-04-17T09:50:25.988Z,7996.00
2024-04-17T09:51:31.000Z,12020.00
2024-04-17T09:52:26.005Z,17024.00
2024-04-17T09:53:31.910Z,12448.00
2024-04-17T09:54:25.982Z,10976.00
2024-04-17T09:55:26.056Z,15264.00
2024-04-17T09:56:25.934Z,22848.00
2024-04-17T09:57:25.926Z,22240.00
2024-04-17T09:58:25.987Z,21568.00
2024-04-17T09:59:25.941Z,9328.00
2024-04-17T10:00:25.885Z,10696.00
2024-04-17T10:01:25.936Z,10624.00
2024-04-17T10:02:30.984Z,11700.00
2024-04-17T10:03:25.926Z,12784.00
2024-04-17T10:04:25.878Z,9676.00
2024-04-17T10:05:25.856Z,13488.00
2024-04-17T10:06:25.801Z,9560.00
2024-04-17T10:07:25.879Z,10296.00
2024-04-17T10:08:25.906Z,9708.00
2024-04-17T10:09:25.827Z,11056.00
2024-04-17T10:10:25.808Z,10660.00
2024-04-17T10:11:25.843Z,25440.00
2024-04-17T10:12:25.732Z,15872.00
2024-04-17T10:13:30.803Z,10500.00
2024-04-17T10:14:25.724Z,10632.00
2024-04-17T10:15:25.748Z,10528.00
2024-04-17T10:16:25.823Z,14032.00
2024-04-17T10:17:34.682Z,11616.00
2024-04-17T10:18:25.991Z,11924.00
2024-04-17T10:19:25.694Z,9096.00
2024-04-17T10:20:25.679Z,13220.00
2024-04-17T10:21:25.650Z,23392.00
2024-04-17T10:22:25.746Z,9172.00
2024-04-17T10:23:25.659Z,13968.00
2024-04-17T10:24:30.732Z,18176.00
2024-04-17T10:25:32.021Z,32800.00
2024-04-17T10:26:25.664Z,38912.00
2024-04-17T10:27:25.582Z,32224.00
2024-04-17T10:28:25.612Z,15128.00
2024-04-17T10:29:25.576Z,9012.00
2024-04-17T10:30:25.582Z,8176.00
2024-04-17T10:31:25.542Z,10540.00
2024-04-17T10:32:25.593Z,8280.00
2024-04-17T10:33:25.647Z,9036.00
2024-04-17T10:34:25.588Z,9280.00
2024-04-17T10:35:30.595Z,27840.00
2024-04-17T10:36:25.550Z,17632.00
2024-04-17T10:37:25.598Z,56768.00
2024-04-17T10:38:31.455Z,41984.00
2024-04-17T10:39:26.443Z,21888.00
2024-04-17T10:40:25.565Z,5460.00
2024-04-17T10:41:25.436Z,6456.00
2024-04-17T10:42:25.443Z,8744.00
2024-04-17T10:43:25.468Z,18272.00
2024-04-17T10:44:25.389Z,10660.00
2024-04-17T10:45:25.403Z,59168.00
2024-04-17T10:46:30.515Z,49312.00
2024-04-17T10:47:25.370Z,24640.00
2024-04-17T10:48:25.476Z,51104.00
2024-04-17T10:49:25.418Z,22144.00
2024-04-17T10:50:25.474Z,82880.00
2024-04-17T10:51:26.417Z,8968.00
2024-04-17T10:52:25.349Z,7084.00
2024-04-17T10:53:25.447Z,10076.00
2024-04-17T10:54:25.297Z,25824.00
2024-04-17T10:55:25.285Z,13892.00
2024-04-17T10:56:25.303Z,18016.00
2024-04-17T10:57:30.309Z,14152.00
2024-04-17T10:58:25.314Z,9776.00
2024-04-17T10:59:25.284Z,15840.00
2024-04-17T11:00:25.259Z,9316.00
2024-04-17T11:01:25.235Z,10240.00
2024-04-17T11:02:25.173Z,12684.00
2024-04-17T11:03:25.408Z,12384.00
2024-04-17T11:04:25.351Z,19616.00
2024-04-17T11:05:25.204Z,32160.00
2024-04-17T11:06:25.180Z,8224.00
2024-04-17T11:07:25.300Z,6432.00
2024-04-17T11:08:30.178Z,5772.00
2024-04-17T11:09:25.111Z,7268.00
2024-04-17T11:10:25.143Z,11008.00
2024-04-17T11:11:25.349Z,9020.00
2024-04-17T11:12:25.088Z,17824.00
2024-04-17T11:13:25.146Z,13624.00
2024-04-17T11:14:25.100Z,9156.00
2024-04-17T11:15:25.100Z,18528.00
2024-04-17T11:16:25.212Z,10864.00
2024-04-17T11:17:25.220Z,14180.00
2024-04-17T11:18:25.206Z,18496.00
2024-04-17T11:19:30.040Z,22080.00
2024-04-17T11:20:24.983Z,21952.00
2024-04-17T11:21:25.018Z,14624.00
2024-04-17T11:22:25.028Z,17984.00
2024-04-17T11:23:24.954Z,6720.00
2024-04-17T11:24:24.970Z,14364.00
2024-04-17T11:25:24.975Z,15488.00
2024-04-17T11:26:24.916Z,11616.00
2024-04-17T11:27:24.901Z,16992.00
2024-04-17T11:28:25.030Z,18656.00
2024-04-17T11:29:33.408Z,10920.00
2024-04-17T11:30:29.921Z,7928.00
2024-04-17T11:31:24.838Z,11596.00
2024-04-17T11:32:24.927Z,9248.00
2024-04-17T11:33:24.875Z,9356.00
2024-04-17T11:34:24.804Z,9564.00
2024-04-17T11:35:24.832Z,8020.00
2024-04-17T11:36:24.824Z,7284.00
2024-04-17T11:37:24.826Z,7924.00
2024-04-17T11:38:24.783Z,10804.00
2024-04-17T11:39:24.759Z,14060.00
2024-04-17T11:40:25.556Z,17120.00
2024-04-17T11:41:29.803Z,14500.00
2024-04-17T11:42:24.747Z,11264.00
2024-04-17T11:43:24.700Z,11476.00
2024-04-17T11:44:24.753Z,6760.00
2024-04-17T11:45:24.760Z,8888.00
2024-04-17T11:46:24.690Z,7304.00
2024-04-17T11:47:24.693Z,9040.00
2024-04-17T11:48:24.968Z,13248.00
2024-04-17T11:49:25.019Z,15616.00
2024-04-17T11:50:24.751Z,10352.00
2024-04-17T11:51:24.610Z,32960.00
2024-04-17T11:52:29.639Z,34624.00
2024-04-17T11:53:24.598Z,33920.00
2024-04-17T11:54:24.653Z,49280.00
2024-04-17T11:55:24.626Z,25376.00
2024-04-17T11:56:24.543Z,39552.00
2024-04-17T11:57:24.536Z,26208.00
2024-04-17T11:58:24.544Z,51296.00
2024-04-17T11:59:24.522Z,33088.00
2024-04-17T12:00:24.616Z,25696.00
2024-04-17T12:01:24.522Z,23584.00
2024-04-17T12:02:24.472Z,7468.00
2024-04-17T12:03:29.754Z,5376.00
2024-04-17T12:04:24.491Z,5880.00
2024-04-17T12:05:24.564Z,6276.00
2024-04-17T12:06:24.488Z,6648.00
2024-04-17T12:07:24.421Z,19104.00
2024-04-17T12:08:24.454Z,16216.00
2024-04-17T12:09:24.403Z,8528.00
2024-04-17T12:10:24.431Z,8752.00
2024-04-17T12:11:24.506Z,8912.00
2024-04-17T12:12:24.401Z,19328.00
2024-04-17T12:13:24.388Z,23008.00
2024-04-17T12:14:29.390Z,11340.00
2024-04-17T12:15:24.351Z,8220.00
2024-04-17T12:16:24.408Z,7484.00
2024-04-17T12:17:24.399Z,6900.00
2024-04-17T12:18:24.318Z,6764.00
2024-04-17T12:19:24.317Z,8084.00
2024-04-17T12:20:24.314Z,8404.00
2024-04-17T12:21:24.252Z,8492.00
2024-04-17T12:22:24.279Z,9796.00
2024-04-17T12:23:24.256Z,13648.00
2024-04-17T12:24:24.299Z,10512.00
2024-04-17T12:25:29.301Z,9076.00
2024-04-17T12:26:24.239Z,8404.00
2024-04-17T12:27:24.186Z,7468.00
2024-04-17T12:28:24.175Z,7036.00
2024-04-17T12:29:24.201Z,73440.00
2024-04-17T12:30:24.201Z,17152.00
2024-04-17T12:31:24.164Z,8832.00
2024-04-17T12:32:24.152Z,83648.00
2024-04-17T12:33:24.231Z,90496.00
2024-04-17T12:34:24.111Z,95584.00
2024-04-17T12:35:24.098Z,97056.00
2024-04-17T12:36:29.110Z,87200.00
2024-04-17T12:37:24.091Z,33984.00
2024-04-17T12:38:24.100Z,24992.00
2024-04-17T12:39:24.102Z,51456.00
2024-04-17T12:40:24.050Z,9460.00
2024-04-17T12:41:24.049Z,6520.00
2024-04-17T12:42:24.063Z,5268.00
2024-04-17T12:43:24.004Z,3648.00
2024-04-17T12:44:24.028Z,3544.00
2024-04-17T12:45:23.979Z,3736.00
2024-04-17T12:46:23.973Z,3512.00
2024-04-17T12:47:29.060Z,3436.00
2024-04-17T12:48:24.010Z,3308.00
2024-04-17T12:49:23.966Z,3368.00
2024-04-17T12:50:23.965Z,3272.00
2024-04-17T12:51:23.923Z,6224.00
2024-04-17T12:52:23.901Z,7344.00
2024-04-17T12:53:23.933Z,8104.00
2024-04-17T12:54:23.890Z,6408.00
2024-04-17T12:55:23.896Z,6648.00
2024-04-17T12:56:23.877Z,6720.00
2024-04-17T12:57:23.864Z,5432.00
2024-04-17T12:58:28.901Z,5588.00
2024-04-17T12:59:23.863Z,6680.00
2024-04-17T13:00:23.823Z,6488.00
2024-04-17T13:01:23.801Z,7040.00
2024-04-17T13:02:28.287Z,7668.00
2024-04-17T13:03:23.899Z,6584.00
2024-04-17T13:04:23.827Z,5648.00
2024-04-17T13:05:23.750Z,5052.00
2024-04-17T13:06:26.176Z,5296.00
2024-04-17T13:07:23.729Z,5444.00
2024-04-17T13:08:23.746Z,4836.00
2024-04-17T13:09:28.788Z,4840.00
2024-04-17T13:10:23.715Z,4888.00
2024-04-17T13:11:23.708Z,5896.00
2024-04-17T13:12:23.682Z,5992.00
2024-04-17T13:13:23.686Z,6156.00
2024-04-17T13:14:23.656Z,6436.00
2024-04-17T13:15:23.672Z,6096.00
2024-04-17T13:16:23.626Z,6704.00
2024-04-17T13:17:23.732Z,7136.00
2024-04-17T13:18:23.766Z,6564.00
2024-04-17T13:19:23.597Z,5200.00
2024-04-17T13:20:28.607Z,4468.00
2024-04-17T13:21:23.574Z,4536.00
2024-04-17T13:22:23.617Z,5224.00
2024-04-17T13:23:23.651Z,6072.00
2024-04-17T13:24:23.709Z,7040.00
2024-04-17T13:25:23.524Z,6820.00
2024-04-17T13:26:24.812Z,5888.00
2024-04-17T13:27:23.602Z,6320.00
2024-04-17T13:28:23.520Z,6768.00
2024-04-17T13:29:23.512Z,7204.00
2024-04-17T13:30:23.474Z,5888.00
2024-04-17T13:31:28.537Z,5660.00
2024-04-17T13:32:23.562Z,4660.00
2024-04-17T13:33:23.502Z,3596.00
2024-04-17T13:34:24.555Z,3400.00
2024-04-17T13:35:23.418Z,3052.00
2024-04-17T13:36:23.407Z,2720.00
2024-04-17T13:37:23.410Z,2848.00
2024-04-17T13:38:23.402Z,4280.00
2024-04-17T13:39:23.386Z,5244.00
2024-04-17T13:40:26.018Z,5784.00
2024-04-17T13:41:23.357Z,5324.00
2024-04-17T13:42:28.386Z,4452.00
2024-04-17T13:43:23.357Z,4400.00
2024-04-17T13:44:23.316Z,4908.00
2024-04-17T13:45:23.310Z,4440.00
2024-04-17T13:46:24.356Z,4488.00
2024-04-17T13:47:23.392Z,3960.00
2024-04-17T13:48:23.410Z,3416.00
2024-04-17T13:49:23.287Z,3336.00
2024-04-17T13:50:23.258Z,3420.00
2024-04-17T13:51:23.259Z,4688.00
2024-04-17T13:52:24.702Z,4852.00
2024-04-17T13:53:28.297Z,3968.00
2024-04-17T13:54:23.197Z,3700.00
2024-04-17T13:55:23.187Z,3924.00
2024-04-17T13:56:23.182Z,4004.00
2024-04-17T13:57:23.183Z,4160.00
2024-04-17T13:58:23.155Z,4604.00
2024-04-17T13:59:23.168Z,4460.00
2024-04-17T14:00:23.138Z,5380.00
2024-04-17T14:01:23.148Z,5720.00
2024-04-17T14:02:23.910Z,5376.00
2024-04-17T14:03:23.151Z,5440.00
2024-04-17T14:04:28.142Z,5476.00
2024-04-17T14:05:23.072Z,5412.00
2024-04-17T14:06:23.104Z,5160.00
2024-04-17T14:07:23.054Z,4736.00
2024-04-17T14:08:24.584Z,4428.00
2024-04-17T14:09:23.049Z,4084.00
2024-04-17T14:10:23.046Z,3848.00
2024-04-17T14:11:23.054Z,3588.00
2024-04-17T14:12:23.166Z,3544.00
2024-04-17T14:13:22.985Z,3792.00
2024-04-17T14:14:22.976Z,3804.00
2024-04-17T14:15:28.008Z,3156.00
2024-04-17T14:16:22.957Z,2664.00
2024-04-17T14:17:22.998Z,2616.00
2024-04-17T14:18:23.050Z,2608.00
2024-04-17T14:19:22.918Z,2620.00
2024-04-17T14:20:22.929Z,2800.00
2024-04-17T14:21:23.039Z,2868.00
2024-04-17T14:22:22.907Z,2848.00
2024-04-17T14:23:22.930Z,3080.00
2024-04-17T14:24:22.912Z,3012.00
2024-04-17T14:25:22.850Z,2904.00
2024-04-17T14:26:27.956Z,2988.00
2024-04-17T14:27:23.053Z,3172.00
2024-04-17T14:28:22.817Z,2912.00
2024-04-17T14:29:22.802Z,2680.00
2024-04-17T14:30:22.840Z,2512.00
2024-04-17T14:31:22.813Z,2796.00
2024-04-17T14:32:22.836Z,2996.00
2024-04-17T14:33:23.049Z,2960.00
2024-04-17T14:34:22.776Z,2848.00
2024-04-17T14:35:23.555Z,2512.00
2024-04-17T14:36:22.751Z,2232.00
2024-04-17T14:37:27.757Z,2204.00
2024-04-17T14:38:22.748Z,1648.00
2024-04-17T14:39:22.751Z,1556.00
2024-04-17T14:40:22.680Z,1520.00
2024-04-17T14:41:22.924Z,1620.00
2024-04-17T14:42:22.711Z,1692.00
2024-04-17T14:43:22.695Z,1588.00
2024-04-17T14:44:22.675Z,1564.00
2024-04-17T14:45:22.713Z,1572.00
2024-04-17T14:46:22.607Z,1608.00
2024-04-17T14:47:22.645Z,1636.00
2024-04-17T14:48:27.742Z,1744.00
2024-04-17T14:49:22.656Z,1644.00
2024-04-17T14:50:22.574Z,1652.00
2024-04-17T14:51:22.603Z,1612.00
2024-04-17T14:52:22.561Z,1780.00
2024-04-17T14:53:22.551Z,1872.00
2024-04-17T14:54:22.555Z,2032.00
2024-04-17T14:55:22.510Z,2168.00
2024-04-17T14:56:22.494Z,2248.00
2024-04-17T14:57:22.565Z,2340.00
2024-04-17T14:58:22.472Z,2396.00
2024-04-17T14:59:27.485Z,2344.00
2024-04-17T15:00:22.497Z,2504.00
2024-04-17T15:01:22.551Z,2488.00
2024-04-17T15:02:22.433Z,2616.00
2024-04-17T15:03:22.477Z,2636.00
2024-04-17T15:04:22.529Z,2684.00
2024-04-17T15:05:22.399Z,2860.00
2024-04-17T15:06:22.713Z,3044.00
2024-04-17T15:07:22.385Z,3144.00
2024-04-17T15:08:22.376Z,3224.00
2024-04-17T15:09:22.432Z,3268.00
2024-04-17T15:10:27.384Z,3436.00
2024-04-17T15:11:22.358Z,3408.00
2024-04-17T15:12:22.357Z,3416.00
2024-04-17T15:13:22.309Z,3496.00
2024-04-17T15:14:22.299Z,3492.00
2024-04-17T15:15:22.317Z,3516.00
2024-04-17T15:16:22.311Z,3360.00
2024-04-17T15:17:22.277Z,3328.00
2024-04-17T15:18:22.443Z,3384.00
2024-04-17T15:19:22.358Z,3212.00
2024-04-17T15:20:22.250Z,3256.00
2024-04-17T15:21:27.317Z,3300.00
2024-04-17T15:22:22.195Z,3192.00
2024-04-17T15:23:22.196Z,3184.00
2024-04-17T15:24:22.214Z,3156.00
2024-04-17T15:25:22.181Z,3076.00
2024-04-17T15:26:22.161Z,2988.00
2024-04-17T15:27:22.172Z,2932.00
2024-04-17T15:28:22.131Z,2736.00
2024-04-17T15:29:22.118Z,2588.00
2024-04-17T15:30:22.150Z,2432.00
2024-04-17T15:31:22.115Z,2288.00
2024-04-17T15:32:27.254Z,2208.00
2024-04-17T15:33:22.090Z,2072.00
2024-04-17T15:34:22.085Z,2004.00
2024-04-17T15:35:22.082Z,1964.00
2024-04-17T15:36:22.044Z,1944.00
2024-04-17T15:37:22.071Z,1932.00
2024-04-17T15:38:22.054Z,1972.00
2024-04-17T15:39:22.004Z,1956.00
2024-04-17T15:40:22.011Z,2020.00
2024-04-17T15:41:21.983Z,2064.00
2024-04-17T15:42:22.000Z,2144.00
2024-04-17T15:43:27.031Z,2236.00
2024-04-17T15:44:21.943Z,2272.00
2024-04-17T15:45:21.976Z,2276.00
2024-04-17T15:46:21.923Z,2276.00
2024-04-17T15:47:21.967Z,2228.00
2024-04-17T15:48:21.914Z,2176.00
2024-04-17T15:49:22.119Z,2172.00
2024-04-17T15:50:21.877Z,2136.00
2024-04-17T15:51:21.925Z,2152.00
2024-04-17T15:52:21.871Z,2168.00
2024-04-17T15:53:21.848Z,2108.00
2024-04-17T15:54:27.083Z,2124.00
2024-04-17T15:55:21.912Z,2140.00
2024-04-17T15:56:21.974Z,2204.00
2024-04-17T15:57:21.807Z,2136.00
2024-04-17T15:58:21.970Z,2184.00
2024-04-17T15:59:21.791Z,2120.00
2024-04-17T16:00:21.827Z,2144.00
2024-04-17T16:01:21.973Z,2156.00
2024-04-17T16:02:21.793Z,2132.00
2024-04-17T16:03:21.914Z,2148.00
2024-04-17T16:04:21.958Z,2136.00
2024-04-17T16:05:26.739Z,2192.00
2024-04-17T16:06:21.792Z,2152.00
2024-04-17T16:07:21.689Z,2128.00
2024-04-17T16:08:21.691Z,2128.00
2024-04-17T16:09:21.726Z,2096.00
2024-04-17T16:10:21.663Z,2080.00
2024-04-17T16:11:22.056Z,2060.00
2024-04-17T16:12:21.661Z,2052.00
2024-04-17T16:13:21.627Z,2016.00
2024-04-17T16:14:21.626Z,1984.00
2024-04-17T16:15:21.691Z,1968.00
2024-04-17T16:16:26.611Z,1936.00
2024-04-17T16:17:21.604Z,1904.00
2024-04-17T16:18:21.650Z,1880.00
2024-04-17T16:19:21.566Z,1836.00
2024-04-17T16:20:21.579Z,1800.00
2024-04-17T16:21:21.546Z,1768.00
2024-04-17T16:22:21.531Z,1732.00
2024-04-17T16:23:21.514Z,1680.00
2024-04-17T16:24:21.559Z,1608.00
2024-04-17T16:25:21.509Z,1528.00
2024-04-17T16:26:21.493Z,1448.00
2024-04-17T16:27:26.556Z,1384.00
2024-04-17T16:28:21.480Z,1312.00
2024-04-17T16:29:21.463Z,1240.00
2024-04-17T16:30:21.466Z,1164.00
2024-04-17T16:31:21.421Z,1104.00
2024-04-17T16:32:21.508Z,1056.00
2024-04-17T16:33:21.505Z,1020.00
2024-04-17T16:34:21.392Z,1000.00
2024-04-17T16:35:21.395Z,992.00
2024-04-17T16:36:21.525Z,996.00
2024-04-17T16:37:21.361Z,1020.00
2024-04-17T16:38:26.418Z,1052.00
2024-04-17T16:39:21.452Z,1088.00
2024-04-17T16:40:21.324Z,1124.00
2024-04-17T16:41:21.354Z,1156.00
2024-04-17T16:42:21.332Z,1184.00
2024-04-17T16:43:21.313Z,1196.00
2024-04-17T16:44:21.292Z,1224.00
2024-04-17T16:45:21.310Z,1260.00
2024-04-17T16:46:21.248Z,1308.00
2024-04-17T16:47:21.238Z,1380.00
2024-04-17T16:48:21.299Z,1464.00
2024-04-17T16:49:26.311Z,1564.00
2024-04-17T16:50:21.210Z,1680.00
2024-04-17T16:51:21.235Z,1804.00
2024-04-17T16:52:21.190Z,1988.00
2024-04-17T16:53:21.177Z,2128.00
2024-04-17T16:54:21.170Z,2284.00
2024-04-17T16:55:21.141Z,2500.00
2024-04-17T16:56:21.184Z,2616.00
2024-04-17T16:57:21.175Z,2656.00
2024-04-17T16:58:21.111Z,2660.00
2024-04-17T16:59:21.105Z,2612.00
2024-04-17T17:00:26.209Z,2588.00
2024-04-17T17:01:21.152Z,2532.00
2024-04-17T17:02:21.090Z,2460.00
2024-04-17T17:03:21.148Z,2408.00
2024-04-17T17:04:21.253Z,2352.00
2024-04-17T17:05:21.034Z,2324.00
2024-04-17T17:06:21.062Z,2260.00